Time,TemperatureF,DewpointF,PressureIn,WindDirection,WindDirectionDegrees,WindSpeedMPH,WindSpeedGustMPH,Humidity,HourlyPrecipIn,Conditions,Clouds,dailyrainin,SoftwareType,DateUTC
2013-01-25 00:00:00,21.0,16.4,30.02,ESE,112,1.0,1.0,82,0.00,-SN,,0.00,WeatherDisplay:10.37,2013-01-24 23:00:00,
2013-01-25 00:10:00,21.0,16.4,30.02,WNW,292,0.0,2.0,82,0.00,-SN,,0.00,WeatherDisplay:10.37,2013-01-24 23:10:00,
2013-01-25 00:20:00,20.8,16.2,30.02,NE,35,2.0,2.0,82,0.00,-SN,,0.00,WeatherDisplay:10.37,2013-01-24 23:20:00,
2013-01-25 00:30:00,20.8,16.2,30.02,NE,53,1.0,2.0,82,0.00,-SN,,0.00,WeatherDisplay:10.37,2013-01-24 23:30:00,
2013-01-25 00:40:00,20.8,16.2,30.02,WSW,246,1.0,2.0,82,0.00,-SN,,0.00,WeatherDisplay:10.37,2013-01-24 23:40:00,
2013-01-25 00:50:00,20.8,16.2,30.03,WNW,292,0.0,1.0,82,0.00,-SN,,0.00,WeatherDisplay:10.37,2013-01-24 23:50:00,
2013-01-25 01:00:00,20.8,16.2,30.03,NW,320,0.0,0.0,82,0.00,-SN,,0.00,WeatherDisplay:10.37,2013-01-25 00:00:00,
2013-01-25 01:10:00,20.8,16.2,30.03,West,281,0.0,0.0,82,0.00,-SN,,0.00,WeatherDisplay:10.37,2013-01-25 00:10:00,
2013-01-25 01:20:00,20.8,16.2,30.03,WNW,282,0.0,2.0,82,0.00,-SN,,0.00,WeatherDisplay:10.37,2013-01-25 00:20:00,
2013-01-25 01:30:00,20.8,16.2,30.03,WNW,292,0.0,3.0,82,0.00,-SN,,0.00,WeatherDisplay:10.37,2013-01-25 00:30:00,
2013-01-25 01:40:00,20.7,16.0,30.03,West,270,0.0,0.0,82,0.00,-SN,,0.00,WeatherDisplay:10.37,2013-01-25 00:40:00,
2013-01-25 01:50:00,20.7,16.0,30.04,WNW,296,0.0,2.0,82,0.00,-SN,,0.00,WeatherDisplay:10.37,2013-01-25 00:50:00,
2013-01-25 02:00:00,20.5,15.9,30.04,WNW,292,0.0,0.0,82,0.00,OVC,,0.00,WeatherDisplay:10.37,2013-01-25 01:00:00,
2013-01-25 02:10:00,20.5,15.9,30.05,SW,232,0.0,0.0,82,0.00,OVC,,0.00,WeatherDisplay:10.37,2013-01-25 01:10:00,
2013-01-25 02:20:00,20.7,16.3,30.05,SE,144,0.0,0.0,83,0.00,OVC,,0.00,WeatherDisplay:10.37,2013-01-25 01:20:00,
2013-01-25 02:30:00,20.7,16.3,30.05,SSW,194,0.0,0.0,83,0.00,OVC,,0.00,WeatherDisplay:10.37,2013-01-25 01:30:00,
2013-01-25 02:40:00,20.5,16.1,30.05,North,11,0.0,0.0,83,0.00,OVC,,0.00,WeatherDisplay:10.37,2013-01-25 01:40:00,
2013-01-25 02:51:00,20.7,16.3,30.04,WNW,292,1.0,1.0,83,0.00,OVC,,0.00,WeatherDisplay:10.37,2013-01-25 01:51:00,
2013-01-25 03:00:00,20.7,16.3,30.04,WSW,257,0.0,0.0,83,0.00,OVC,,0.00,WeatherDisplay:10.37,2013-01-25 02:00:00,
2013-01-25 03:10:00,20.5,16.1,30.05,NW,324,0.0,0.0,83,0.00,OVC,,0.00,WeatherDisplay:10.37,2013-01-25 02:10:00,
2013-01-25 03:20:00,20.5,16.1,30.05,SE,127,0.0,0.0,83,0.00,OVC,,0.00,WeatherDisplay:10.37,2013-01-25 02:20:00,
2013-01-25 03:30:00,20.5,16.1,30.05,South,173,0.0,2.0,83,0.00,-SN,,0.00,WeatherDisplay:10.37,2013-01-25 02:30:00,
2013-01-25 03:41:00,20.5,16.1,30.05,SW,230,5.0,5.0,83,0.00,-SN,,0.00,WeatherDisplay:10.37,2013-01-25 02:41:00,
2013-01-25 03:50:00,20.5,16.1,30.05,WNW,286,0.0,5.0,83,0.00,-SN,,0.00,WeatherDisplay:10.37,2013-01-25 02:50:00,
2013-01-25 04:00:00,20.8,16.8,30.06,WNW,289,0.0,0.0,84,0.00,-SN,,0.00,WeatherDisplay:10.37,2013-01-25 03:00:00,
2013-01-25 04:10:00,20.7,16.6,30.06,NNW,348,0.0,0.0,84,0.00,-SN,,0.00,WeatherDisplay:10.37,2013-01-25 03:10:00,
2013-01-25 04:20:00,20.7,16.6,30.06,North,1,0.0,0.0,84,0.00,-SN,,0.00,WeatherDisplay:10.37,2013-01-25 03:20:00,
2013-01-25 04:30:00,20.7,16.6,30.06,NW,305,0.0,2.0,84,0.00,-SN,,0.00,WeatherDisplay:10.37,2013-01-25 03:30:00,
2013-01-25 04:40:00,20.7,16.6,30.07,NW,310,0.0,0.0,84,0.00,-SN,,0.00,WeatherDisplay:10.37,2013-01-25 03:40:00,
2013-01-25 04:50:00,20.7,16.6,30.07,WNW,292,1.0,1.0,84,0.00,-SN,,0.00,WeatherDisplay:10.37,2013-01-25 03:50:00,
2013-01-25 05:00:00,20.8,16.8,30.07,West,278,0.0,1.0,84,0.00,-SN,,0.00,WeatherDisplay:10.37,2013-01-25 04:00:00,
2013-01-25 05:10:00,20.8,16.8,30.07,WNW,302,1.0,1.0,84,0.00,-SN,,0.00,WeatherDisplay:10.37,2013-01-25 04:10:00,
2013-01-25 05:20:00,20.8,16.8,30.07,WSW,257,1.0,1.0,84,0.00,-SN,,0.00,WeatherDisplay:10.37,2013-01-25 04:20:00,
2013-01-25 05:40:00,20.8,16.8,30.07,North,11,0.0,1.0,84,0.00,-SN,,0.00,WeatherDisplay:10.37,2013-01-25 04:40:00,
2013-01-25 05:50:00,20.8,16.5,30.08,West,263,0.0,3.0,83,0.00,-SN,,0.00,WeatherDisplay:10.37,2013-01-25 04:50:00,
2013-01-25 06:10:00,20.8,16.5,30.08,NW,322,0.0,0.0,83,0.00,-SN,,0.00,WeatherDisplay:10.37,2013-01-25 05:10:00,
2013-01-25 06:20:00,20.8,16.5,30.08,WNW,291,0.0,2.0,83,0.00,-SN,,0.00,WeatherDisplay:10.37,2013-01-25 05:20:00,
2013-01-25 06:40:00,20.8,16.5,30.08,WNW,292,0.0,0.0,83,0.00,-SN,,0.00,WeatherDisplay:10.37,2013-01-25 05:40:00,
2013-01-25 06:50:00,20.8,16.5,30.08,WNW,300,0.0,2.0,83,0.00,-SN,,0.00,WeatherDisplay:10.37,2013-01-25 05:50:00,
2013-01-25 07:10:00,20.8,16.5,30.09,WNW,303,2.0,2.0,83,0.00,-SN,,0.00,WeatherDisplay:10.37,2013-01-25 06:10:00,
2013-01-25 07:20:00,20.8,16.5,30.09,WNW,292,2.0,2.0,83,0.00,-SN,,0.00,WeatherDisplay:10.37,2013-01-25 06:20:00,
2013-01-25 07:30:00,20.8,16.5,30.10,West,279,0.0,2.0,83,0.00,-SN,,0.00,WeatherDisplay:10.37,2013-01-25 06:30:00,
2013-01-25 07:40:00,20.8,16.5,30.10,West,271,0.0,0.0,83,0.00,-SN,,0.00,WeatherDisplay:10.37,2013-01-25 06:40:00,
2013-01-25 07:50:00,20.8,16.5,30.10,WNW,284,1.0,1.0,83,0.00,-SN,,0.00,WeatherDisplay:10.37,2013-01-25 06:50:00,
2013-01-25 08:00:00,20.8,16.2,30.10,NW,305,0.0,2.0,82,0.00,-SN,,0.00,WeatherDisplay:10.37,2013-01-25 07:00:00,
2013-01-25 08:10:00,20.8,16.2,30.10,NW,312,0.0,1.0,82,0.00,-SN,,0.00,WeatherDisplay:10.37,2013-01-25 07:10:00,
2013-01-25 08:20:00,20.8,16.2,30.10,WNW,282,1.0,1.0,82,0.00,-SN,,0.00,WeatherDisplay:10.37,2013-01-25 07:20:00,
2013-01-25 08:31:00,20.8,16.2,30.10,WNW,294,0.0,0.0,82,0.00,-SN,,0.00,WeatherDisplay:10.37,2013-01-25 07:31:00,
2013-01-25 08:50:00,20.8,16.2,30.11,WSW,257,1.0,1.0,82,0.00,-SN,,0.00,WeatherDisplay:10.37,2013-01-25 07:50:00,
2013-01-25 09:01:00,20.8,16.2,30.11,WNW,292,0.0,0.0,82,0.00,-SN,,0.00,WeatherDisplay:10.37,2013-01-25 08:01:00,
2013-01-25 09:20:00,20.8,16.2,30.11,WNW,299,0.0,0.0,82,0.00,-SN,,0.00,WeatherDisplay:10.37,2013-01-25 08:20:00,
2013-01-25 09:31:00,21.0,16.4,30.11,WNW,289,0.0,1.0,82,0.00,-SN,,0.00,WeatherDisplay:10.37,2013-01-25 08:31:00,
2013-01-25 09:40:00,21.0,16.4,30.12,SE,137,0.0,0.0,82,0.00,-SN,,0.00,WeatherDisplay:10.37,2013-01-25 08:40:00,
2013-01-25 09:50:00,21.0,16.4,30.12,SW,228,0.0,0.0,82,0.00,-SN,,0.00,WeatherDisplay:10.37,2013-01-25 08:50:00,
2013-01-25 10:01:00,21.0,16.4,30.13,West,270,0.0,0.0,82,0.00,-SN,,0.00,WeatherDisplay:10.37,2013-01-25 09:01:00,
2013-01-25 10:11:00,21.0,15.8,30.13,West,262,0.0,1.0,80,0.00,-SN,,0.00,WeatherDisplay:10.37,2013-01-25 09:11:00,
2013-01-25 10:31:00,21.2,16.0,30.14,WSW,254,1.0,1.0,80,0.00,-SN,,0.00,WeatherDisplay:10.37,2013-01-25 09:31:00,
2013-01-25 10:40:00,21.4,16.2,30.14,WNW,285,0.0,0.0,80,0.00,-SN,,0.00,WeatherDisplay:10.37,2013-01-25 09:40:00,
2013-01-25 10:50:00,21.0,15.8,30.14,SSW,202,0.0,0.0,80,0.00,-SN,,0.00,WeatherDisplay:10.37,2013-01-25 09:50:00,
2013-01-25 11:00:00,20.8,15.4,30.14,SE,126,0.0,0.0,79,0.00,-SN,,0.00,WeatherDisplay:10.37,2013-01-25 10:00:00,
2013-01-25 11:10:00,21.0,15.8,30.14,WNW,282,1.0,1.0,80,0.00,-SN,,0.00,WeatherDisplay:10.37,2013-01-25 10:10:00,
2013-01-25 11:20:00,20.8,15.6,30.14,SE,135,0.0,2.0,80,0.00,-SN,,0.00,WeatherDisplay:10.37,2013-01-25 10:20:00,
2013-01-25 11:30:00,21.0,15.5,30.14,SW,216,0.0,1.0,79,0.00,-SN,,0.00,WeatherDisplay:10.37,2013-01-25 10:30:00,
2013-01-25 11:41:00,21.0,15.5,30.14,NW,315,1.0,1.0,79,0.00,-SN,,0.00,WeatherDisplay:10.37,2013-01-25 10:41:00,
2013-01-25 11:51:00,21.0,15.5,30.14,NNW,332,0.0,1.0,79,0.00,-SN,,0.00,WeatherDisplay:10.37,2013-01-25 10:51:00,
2013-01-25 12:01:00,21.0,15.5,30.14,WNW,292,0.0,0.0,79,0.00,-SN,,0.00,WeatherDisplay:10.37,2013-01-25 11:01:00,
2013-01-25 12:10:00,21.0,15.5,30.14,WNW,292,1.0,2.0,79,0.00,-SN,,0.00,WeatherDisplay:10.37,2013-01-25 11:10:00,
2013-01-25 12:21:00,21.0,15.5,30.14,West,275,0.0,1.0,79,0.00,-SN,,0.00,WeatherDisplay:10.37,2013-01-25 11:21:00,
2013-01-25 12:30:00,21.4,15.6,30.14,WNW,292,0.0,2.0,78,0.00,-SN,,0.00,WeatherDisplay:10.37,2013-01-25 11:30:00,
2013-01-25 12:41:00,21.9,15.5,30.14,WNW,292,0.0,0.0,76,0.00,-SN,,0.00,WeatherDisplay:10.37,2013-01-25 11:41:00,
2013-01-25 12:50:00,21.7,15.6,30.14,WNW,296,1.0,2.0,77,0.00,-SN,,0.00,WeatherDisplay:10.37,2013-01-25 11:50:00,
2013-01-25 13:00:00,21.4,15.3,30.14,NW,314,2.0,2.0,77,0.00,-SN,,0.00,WeatherDisplay:10.37,2013-01-25 12:00:00,
2013-01-25 13:10:00,21.7,15.6,30.14,NW,313,1.0,1.0,77,0.00,-SN,,0.00,WeatherDisplay:10.37,2013-01-25 12:10:00,
2013-01-25 13:20:00,21.7,15.9,30.13,WNW,292,0.0,1.0,78,0.00,-SN,,0.00,WeatherDisplay:10.37,2013-01-25 12:20:00,
2013-01-25 13:30:00,21.7,15.6,30.14,NW,305,1.0,2.0,77,0.00,-SN,,0.00,WeatherDisplay:10.37,2013-01-25 12:30:00,
2013-01-25 13:41:00,21.7,15.9,30.13,WNW,300,0.0,0.0,78,0.00,-SN,,0.00,WeatherDisplay:10.37,2013-01-25 12:41:00,
2013-01-25 13:50:00,21.7,15.9,30.14,WNW,301,0.0,0.0,78,0.00,-SN,,0.00,WeatherDisplay:10.37,2013-01-25 12:50:00,
2013-01-25 14:01:00,22.1,16.3,30.13,WNW,292,0.0,0.0,78,0.00,-SN,,0.00,WeatherDisplay:10.37,2013-01-25 13:01:00,
2013-01-25 14:10:00,23.2,16.4,30.13,WNW,292,0.0,0.0,75,0.00,-SN,,0.00,WeatherDisplay:10.37,2013-01-25 13:10:00,
2013-01-25 14:21:00,23.4,16.6,30.13,West,279,0.0,0.0,75,0.00,-SN,,0.00,WeatherDisplay:10.37,2013-01-25 13:21:00,
2013-01-25 14:30:00,23.7,16.6,30.14,West,281,0.0,0.0,74,0.00,-SN,,0.00,WeatherDisplay:10.37,2013-01-25 13:30:00,
2013-01-25 14:40:00,23.7,16.6,30.14,West,270,0.0,0.0,74,0.00,-SN,,0.00,WeatherDisplay:10.37,2013-01-25 13:40:00,
2013-01-25 14:50:00,23.2,16.1,30.13,WSW,238,0.0,1.0,74,0.00,-SN,,0.00,WeatherDisplay:10.37,2013-01-25 13:50:00,
2013-01-25 15:01:00,23.0,16.3,30.14,SW,230,1.0,1.0,75,0.00,BKN,,0.00,WeatherDisplay:10.37,2013-01-25 14:01:00,
2013-01-25 15:10:00,23.5,16.8,30.14,WNW,292,0.0,0.0,75,0.00,BKN,,0.00,WeatherDisplay:10.37,2013-01-25 14:10:00,
2013-01-25 15:20:00,23.0,16.6,30.14,WSW,252,0.0,0.0,76,0.00,BKN,,0.00,WeatherDisplay:10.37,2013-01-25 14:20:00,
2013-01-25 15:30:00,22.3,15.6,30.14,West,270,0.0,0.0,75,0.00,BKN,,0.00,WeatherDisplay:10.37,2013-01-25 14:30:00,
2013-01-25 15:40:00,22.1,15.4,30.14,West,270,0.0,0.0,75,0.00,BKN,,0.00,WeatherDisplay:10.37,2013-01-25 14:40:00,
2013-01-25 15:50:00,21.9,15.2,30.14,West,270,0.0,0.0,75,0.00,BKN,,0.00,WeatherDisplay:10.37,2013-01-25 14:50:00,
2013-01-25 16:00:00,21.4,15.0,30.14,WNW,292,0.0,0.0,76,0.00,BKN,,0.00,WeatherDisplay:10.37,2013-01-25 15:00:00,
2013-01-25 16:10:00,21.0,14.6,30.14,WNW,292,0.0,0.0,76,0.00,BKN,,0.00,WeatherDisplay:10.37,2013-01-25 15:10:00,
2013-01-25 16:20:00,20.8,15.1,30.14,WNW,294,0.0,0.0,78,0.00,SCT,,0.00,WeatherDisplay:10.37,2013-01-25 15:20:00,
2013-01-25 16:31:00,20.3,14.8,30.14,NNE,33,0.0,0.0,79,0.00,SCT,,0.00,WeatherDisplay:10.37,2013-01-25 15:31:00,
2013-01-25 16:40:00,19.6,14.4,30.15,ESE,112,0.0,0.0,80,0.00,FEW,,0.00,WeatherDisplay:10.37,2013-01-25 15:40:00,
2013-01-25 16:51:00,19.4,14.2,30.15,ESE,112,0.0,0.0,80,0.00,FEW,,0.00,WeatherDisplay:10.37,2013-01-25 15:51:00,
2013-01-25 17:00:00,18.7,13.5,30.15,NW,306,0.0,2.0,80,0.00,FEW,,0.00,WeatherDisplay:10.37,2013-01-25 16:00:00,
2013-01-25 17:10:00,18.1,13.3,30.15,ESE,112,0.0,0.0,81,0.00,FEW,,0.00,WeatherDisplay:10.37,2013-01-25 16:10:00,
2013-01-25 17:20:00,17.8,12.7,30.15,SE,126,2.0,2.0,80,0.00,FEW,,0.00,WeatherDisplay:10.37,2013-01-25 16:20:00,
2013-01-25 17:30:00,16.9,11.8,30.16,SE,135,0.0,2.0,80,0.00,SCT,,0.00,WeatherDisplay:10.37,2013-01-25 16:30:00,
2013-01-25 17:41:00,16.3,11.3,30.16,SE,135,0.0,1.0,80,0.00,SCT,,0.00,WeatherDisplay:10.37,2013-01-25 16:41:00,
2013-01-25 17:50:00,16.0,11.2,30.16,SSE,162,0.0,0.0,81,0.00,SCT,,0.00,WeatherDisplay:10.37,2013-01-25 16:50:00,
2013-01-25 18:00:00,15.4,10.7,30.16,SSE,164,0.0,2.0,81,0.00,FEW,,0.00,WeatherDisplay:10.37,2013-01-25 17:00:00,
2013-01-25 18:10:00,14.7,9.9,30.16,SE,139,0.0,0.0,81,0.00,FEW,,0.00,WeatherDisplay:10.37,2013-01-25 17:10:00,
2013-01-25 18:20:00,14.4,9.6,30.16,WSW,258,0.0,0.0,81,0.00,FEW,,0.00,WeatherDisplay:10.37,2013-01-25 17:20:00,
2013-01-25 18:41:00,13.3,8.8,30.16,SE,135,0.0,0.0,82,0.00,FEW,,0.00,WeatherDisplay:10.37,2013-01-25 17:41:00,
2013-01-25 18:51:00,13.1,8.6,30.16,SE,135,1.0,1.0,82,0.00,FEW,,0.00,WeatherDisplay:10.37,2013-01-25 17:51:00,
2013-01-25 19:00:00,12.7,8.3,30.17,ESE,120,0.0,1.0,82,0.00,CLR,,0.00,WeatherDisplay:10.37,2013-01-25 18:00:00,
2013-01-25 19:10:00,12.2,8.0,30.17,ESE,115,1.0,1.0,83,0.00,CLR,,0.00,WeatherDisplay:10.37,2013-01-25 18:10:00,
2013-01-25 19:20:00,11.8,7.7,30.17,SE,135,0.0,1.0,83,0.00,CLR,,0.00,WeatherDisplay:10.37,2013-01-25 18:20:00,
2013-01-25 19:30:00,11.7,7.5,30.17,SE,135,1.0,1.0,83,0.00,CLR,,0.00,WeatherDisplay:10.37,2013-01-25 18:30:00,
2013-01-25 19:40:00,11.1,7.0,30.16,ESE,114,1.0,1.0,83,0.00,CLR,,0.00,WeatherDisplay:10.37,2013-01-25 18:40:00,
2013-01-25 19:50:00,10.9,6.8,30.16,SE,135,0.0,1.0,83,0.00,FEW,,0.00,WeatherDisplay:10.37,2013-01-25 18:50:00,
2013-01-25 20:00:00,10.8,6.6,30.17,SE,135,0.0,0.0,83,0.00,FEW,,0.00,WeatherDisplay:10.37,2013-01-25 19:00:00,
2013-01-25 20:10:00,10.6,6.7,30.17,SE,135,3.0,3.0,84,0.00,FEW,,0.00,WeatherDisplay:10.37,2013-01-25 19:10:00,
2013-01-25 20:20:00,9.9,6.0,30.16,ESE,123,0.0,2.0,84,0.00,CLR,,0.00,WeatherDisplay:10.37,2013-01-25 19:20:00,
2013-01-25 20:30:00,9.5,5.6,30.17,ESE,114,0.0,0.0,84,0.00,CLR,,0.00,WeatherDisplay:10.37,2013-01-25 19:30:00,
2013-01-25 20:40:00,9.5,5.6,30.17,SE,135,0.0,0.0,84,0.00,CLR,,0.00,WeatherDisplay:10.37,2013-01-25 19:40:00,
2013-01-25 20:50:00,9.1,5.3,30.17,SE,135,2.0,2.0,84,0.00,CLR,,0.00,WeatherDisplay:10.37,2013-01-25 19:50:00,
2013-01-25 21:00:00,9.0,5.1,30.17,SE,135,0.0,2.0,84,0.00,CLR,,0.00,WeatherDisplay:10.37,2013-01-25 20:00:00,
2013-01-25 21:10:00,8.8,4.9,30.17,SE,135,0.0,0.0,84,0.00,CLR,,0.00,WeatherDisplay:10.37,2013-01-25 20:10:00,
2013-01-25 21:20:00,8.4,4.8,30.16,SE,135,1.0,2.0,85,0.00,CLR,,0.00,WeatherDisplay:10.37,2013-01-25 20:20:00,
2013-01-25 21:30:00,8.2,4.7,30.16,SE,125,0.0,2.0,85,0.00,CLR,,0.00,WeatherDisplay:10.37,2013-01-25 20:30:00,
2013-01-25 21:40:00,7.9,4.3,30.16,SE,135,0.0,0.0,85,0.00,CLR,,0.00,WeatherDisplay:10.37,2013-01-25 20:40:00,
2013-01-25 21:50:00,7.7,4.1,30.16,SE,135,2.0,2.0,85,0.00,CLR,,0.00,WeatherDisplay:10.37,2013-01-25 20:50:00,
2013-01-25 22:01:00,7.3,3.8,30.15,SE,135,0.0,2.0,85,0.00,CLR,,0.00,WeatherDisplay:10.37,2013-01-25 21:01:00,
2013-01-25 22:10:00,7.0,3.4,30.15,SE,135,0.0,2.0,85,0.00,CLR,,0.00,WeatherDisplay:10.37,2013-01-25 21:10:00,
2013-01-25 22:21:00,7.0,3.2,30.15,SE,129,0.0,0.0,84,0.00,CLR,,0.00,WeatherDisplay:10.37,2013-01-25 21:21:00,
2013-01-25 22:30:00,6.4,2.9,30.14,SE,135,2.0,3.0,85,0.00,CLR,,0.00,WeatherDisplay:10.37,2013-01-25 21:30:00,
2013-01-25 22:40:00,6.1,2.5,30.14,SE,129,2.0,2.0,85,0.00,CLR,,0.00,WeatherDisplay:10.37,2013-01-25 21:40:00,
2013-01-25 22:50:00,5.9,2.4,30.14,SE,127,0.0,2.0,85,0.00,CLR,,0.00,WeatherDisplay:10.37,2013-01-25 21:50:00,
2013-01-25 23:00:00,5.5,2.0,30.14,SE,134,2.0,2.0,85,0.00,CLR,,0.00,WeatherDisplay:10.37,2013-01-25 22:00:00,
2013-01-25 23:10:00,5.2,1.7,30.13,SE,125,1.0,2.0,85,0.00,CLR,,0.00,WeatherDisplay:10.37,2013-01-25 22:10:00,
2013-01-25 23:20:00,5.0,1.5,30.13,SE,135,2.0,2.0,85,0.00,CLR,,0.00,WeatherDisplay:10.37,2013-01-25 22:20:00,
2013-01-25 23:31:00,4.8,1.3,30.13,SE,135,1.0,2.0,85,0.00,CLR,,0.00,WeatherDisplay:10.37,2013-01-25 22:31:00,
2013-01-25 23:40:00,4.6,1.1,30.13,SE,135,2.0,2.0,85,0.00,CLR,,0.00,WeatherDisplay:10.37,2013-01-25 22:40:00,
2013-01-25 23:50:00,4.5,0.9,30.13,SE,135,0.0,2.0,85,0.00,CLR,,0.00,WeatherDisplay:10.37,2013-01-25 22:50:00,